createdAt,value
2018-11-13T00:00:09.218Z,0.00
2018-11-13T00:01:09.141Z,0.00
2018-11-13T00:02:09.070Z,0.00
2018-11-13T00:03:08.990Z,0.00
2018-11-13T00:04:08.913Z,0.00
2018-11-13T00:05:08.839Z,0.00
2018-11-13T00:06:08.765Z,0.00
2018-11-13T00:07:08.686Z,0.00
2018-11-13T00:08:08.613Z,0.00
2018-11-13T00:09:08.533Z,0.00
2018-11-13T00:10:08.456Z,0.00
2018-11-13T00:11:08.421Z,0.00
2018-11-13T00:12:08.306Z,0.00
2018-11-13T00:13:08.230Z,0.00
2018-11-13T00:14:08.157Z,0.00
2018-11-13T00:15:08.080Z,0.00
2018-11-13T00:16:08.002Z,0.00
2018-11-13T00:17:07.926Z,0.00
2018-11-13T00:18:07.848Z,0.00
2018-11-13T00:19:07.777Z,0.00
2018-11-13T00:20:07.699Z,0.00
2018-11-13T00:21:07.620Z,0.00
2018-11-13T00:22:07.547Z,0.00
2018-11-13T00:23:07.471Z,0.00
2018-11-13T00:24:07.915Z,0.00
2018-11-13T00:25:07.318Z,0.00
2018-11-13T00:26:07.240Z,0.00
2018-11-13T00:27:07.166Z,0.00
2018-11-13T00:28:07.084Z,0.00
2018-11-13T00:29:07.014Z,0.00
2018-11-13T00:30:06.937Z,0.00
2018-11-13T00:31:06.858Z,0.00
2018-11-13T00:32:06.784Z,0.00
2018-11-13T00:33:06.711Z,0.00
2018-11-13T00:34:06.636Z,0.00
2018-11-13T00:35:06.556Z,0.00
2018-11-13T00:36:06.479Z,0.00
2018-11-13T00:37:06.407Z,0.00
2018-11-13T00:38:06.331Z,0.00
2018-11-13T00:39:06.313Z,0.00
2018-11-13T00:40:06.176Z,0.00
2018-11-13T00:41:06.099Z,0.00
2018-11-13T00:42:06.078Z,0.00
2018-11-13T00:43:05.952Z,0.00
2018-11-13T00:44:05.872Z,0.00
2018-11-13T00:45:05.797Z,0.00
2018-11-13T00:46:05.812Z,0.00
2018-11-13T00:47:05.644Z,0.00
2018-11-13T00:48:05.570Z,0.00
2018-11-13T00:49:05.492Z,0.00
2018-11-13T00:50:05.418Z,0.00
2018-11-13T00:51:05.341Z,0.00
2018-11-13T00:52:05.262Z,0.00
2018-11-13T00:53:05.189Z,0.00
2018-11-13T00:54:05.114Z,0.00
2018-11-13T00:55:05.427Z,0.00
2018-11-13T00:56:04.960Z,0.00
2018-11-13T00:57:04.886Z,0.00
2018-11-13T00:58:04.809Z,0.00
2018-11-13T00:59:04.734Z,0.00
2018-11-13T01:00:04.659Z,0.00
2018-11-13T01:01:04.579Z,0.00
2018-11-13T01:02:04.573Z,0.00
2018-11-13T01:03:04.434Z,0.00
2018-11-13T01:04:04.355Z,0.00
2018-11-13T01:05:04.342Z,0.00
2018-11-13T01:06:04.204Z,0.00
2018-11-13T01:07:04.125Z,0.00
2018-11-13T01:08:04.052Z,0.00
2018-11-13T01:09:03.971Z,0.00
2018-11-13T01:10:03.895Z,0.00
2018-11-13T01:11:03.821Z,0.00
2018-11-13T01:12:03.746Z,0.00
2018-11-13T01:13:03.666Z,0.00
2018-11-13T01:14:03.590Z,0.00
2018-11-13T01:15:03.545Z,0.00
2018-11-13T01:16:03.439Z,0.00
2018-11-13T01:17:03.363Z,0.00
2018-11-13T01:18:03.288Z,0.00
2018-11-13T01:19:03.211Z,0.00
2018-11-13T01:20:03.136Z,0.00
2018-11-13T01:21:03.064Z,0.00
2018-11-13T01:22:02.984Z,0.00
2018-11-13T01:23:02.914Z,0.00
2018-11-13T01:24:03.234Z,0.00
2018-11-13T01:25:02.755Z,0.00
2018-11-13T01:26:02.702Z,0.00
2018-11-13T01:27:02.619Z,0.00
2018-11-13T01:28:02.527Z,0.00
2018-11-13T01:29:02.450Z,0.00
2018-11-13T01:30:02.374Z,0.00
2018-11-13T01:31:02.299Z,0.00
2018-11-13T01:32:02.223Z,0.00
2018-11-13T01:33:02.145Z,0.00
2018-11-13T01:34:02.073Z,0.00
2018-11-13T01:35:01.992Z,0.00
2018-11-13T01:36:01.930Z,0.00
2018-11-13T01:37:01.848Z,0.00
2018-11-13T01:38:01.767Z,0.00
2018-11-13T01:39:01.692Z,0.00
2018-11-13T01:40:01.611Z,0.00
2018-11-13T01:41:01.556Z,0.00
2018-11-13T01:42:01.461Z,0.00
2018-11-13T01:43:01.384Z,0.00
2018-11-13T01:44:01.308Z,0.00
2018-11-13T01:45:01.234Z,0.00
2018-11-13T01:46:01.158Z,0.00
2018-11-13T01:47:01.077Z,0.00
2018-11-13T01:48:01.035Z,0.00
2018-11-13T01:49:00.927Z,0.00
2018-11-13T01:50:00.857Z,0.00
2018-11-13T01:51:00.776Z,0.00
2018-11-13T01:52:00.699Z,0.00
2018-11-13T01:53:00.622Z,0.00
2018-11-13T01:54:00.557Z,0.00
2018-11-13T01:55:00.473Z,0.00
2018-11-13T01:56:00.394Z,0.00
2018-11-13T01:57:00.334Z,0.00
2018-11-13T01:58:00.246Z,0.00
2018-11-13T01:59:00.167Z,0.00
2018-11-13T02:00:00.091Z,0.00
2018-11-13T02:01:00.030Z,0.00
2018-11-13T02:01:59.941Z,0.00
2018-11-13T02:02:59.867Z,0.00
2018-11-13T02:03:59.785Z,0.00
2018-11-13T02:04:59.708Z,0.00
2018-11-13T02:05:59.643Z,0.28
2018-11-13T02:06:59.560Z,0.00
2018-11-13T02:07:59.480Z,0.67
2018-11-13T02:08:59.406Z,0.48
2018-11-13T02:09:59.328Z,0.00
2018-11-13T02:10:59.254Z,0.00
2018-11-13T02:11:59.178Z,0.00
2018-11-13T02:12:59.101Z,0.00
2018-11-13T02:13:59.023Z,0.00
2018-11-13T02:14:58.948Z,0.00
2018-11-13T02:15:58.877Z,0.38
2018-11-13T02:16:58.797Z,1.14
2018-11-13T02:17:58.720Z,1.24
2018-11-13T02:18:58.644Z,0.76
2018-11-13T02:19:58.566Z,0.00
2018-11-13T02:20:58.492Z,0.00
2018-11-13T02:21:58.418Z,0.38
2018-11-13T02:22:58.342Z,0.00
2018-11-13T02:23:58.260Z,0.00
2018-11-13T02:24:58.186Z,0.67
2018-11-13T02:25:58.114Z,0.48
2018-11-13T02:26:58.039Z,1.04
2018-11-13T02:27:57.958Z,1.72
2018-11-13T02:28:57.883Z,0.95
2018-11-13T02:29:57.805Z,1.62
2018-11-13T02:30:57.732Z,0.48
2018-11-13T02:31:57.651Z,1.24
2018-11-13T02:32:57.575Z,0.00
2018-11-13T02:33:57.503Z,0.38
2018-11-13T02:34:57.426Z,0.00
2018-11-13T02:35:57.350Z,0.00
2018-11-13T02:36:57.275Z,0.00
2018-11-13T02:37:57.240Z,0.00
2018-11-13T02:38:57.125Z,0.00
2018-11-13T02:39:57.047Z,0.48
2018-11-13T02:40:56.971Z,2.09
2018-11-13T02:41:56.894Z,2.48
2018-11-13T02:42:56.819Z,3.34
2018-11-13T02:43:56.742Z,6.10
2018-11-13T02:44:56.666Z,15.45
2018-11-13T02:45:56.590Z,19.18
2018-11-13T02:46:56.520Z,19.65
2018-11-13T02:47:56.450Z,18.13
2018-11-13T02:48:56.361Z,17.17
2018-11-13T02:49:56.285Z,16.79
2018-11-13T02:50:56.210Z,16.50
2018-11-13T02:51:56.141Z,14.31
2018-11-13T02:52:56.057Z,13.83
2018-11-13T02:53:55.979Z,14.03
2018-11-13T02:54:55.909Z,14.50
2018-11-13T02:55:55.834Z,16.12
2018-11-13T02:56:55.753Z,14.88
2018-11-13T02:57:55.675Z,17.17
2018-11-13T02:58:55.599Z,16.50
2018-11-13T02:59:55.524Z,16.98
2018-11-13T03:00:55.447Z,15.26
2018-11-13T03:01:55.370Z,15.45
2018-11-13T03:02:55.295Z,14.69
2018-11-13T03:03:55.220Z,17.17
2018-11-13T03:04:55.147Z,15.07
2018-11-13T03:05:55.067Z,14.50
2018-11-13T03:06:54.991Z,15.17
2018-11-13T03:07:54.929Z,13.17
2018-11-13T03:08:54.837Z,11.25
2018-11-13T03:09:54.765Z,11.54
2018-11-13T03:10:54.686Z,10.39
2018-11-13T03:11:54.624Z,11.63
2018-11-13T03:12:54.536Z,12.77
2018-11-13T03:13:54.506Z,15.45
2018-11-13T03:14:54.382Z,14.69
2018-11-13T03:15:54.307Z,13.25
2018-11-13T03:16:54.233Z,13.45
2018-11-13T03:17:54.156Z,14.30
2018-11-13T03:18:54.078Z,13.35
2018-11-13T03:19:54.006Z,15.64
2018-11-13T03:20:53.925Z,18.12
2018-11-13T03:21:53.851Z,16.40
2018-11-13T03:22:53.772Z,16.31
2018-11-13T03:23:53.696Z,17.74
2018-11-13T03:24:53.622Z,19.56
2018-11-13T03:25:53.545Z,20.89
2018-11-13T03:26:53.467Z,23.47
2018-11-13T03:27:53.393Z,23.09
2018-11-13T03:28:53.321Z,29.48
2018-11-13T03:29:53.242Z,24.99
2018-11-13T03:30:53.209Z,24.99
2018-11-13T03:31:53.093Z,26.62
2018-11-13T03:32:53.024Z,28.62
2018-11-13T03:33:52.937Z,35.39
2018-11-13T03:34:52.861Z,39.69
2018-11-13T03:35:52.785Z,35.87
2018-11-13T03:36:52.711Z,37.12
2018-11-13T03:37:52.634Z,38.45
2018-11-13T03:38:52.555Z,38.73
2018-11-13T03:39:52.483Z,39.22
2018-11-13T03:40:52.403Z,40.93
2018-11-13T03:41:52.327Z,42.08
2018-11-13T03:42:52.254Z,40.74
2018-11-13T03:43:52.177Z,41.50
2018-11-13T03:44:52.108Z,42.65
2018-11-13T03:45:52.028Z,45.03
2018-11-13T03:46:51.948Z,47.13
2018-11-13T03:47:51.870Z,47.32
2018-11-13T03:48:51.794Z,47.23
2018-11-13T03:49:51.717Z,47.13
2018-11-13T03:50:51.641Z,47.52
2018-11-13T03:51:51.564Z,47.80
2018-11-13T03:52:51.492Z,49.04
2018-11-13T03:53:51.413Z,50.09
2018-11-13T03:54:51.337Z,50.28
2018-11-13T03:55:51.261Z,47.32
2018-11-13T03:56:51.189Z,46.37
2018-11-13T03:57:51.109Z,45.42
2018-11-13T03:58:51.034Z,45.22
2018-11-13T03:59:50.957Z,46.47
2018-11-13T04:00:50.881Z,46.27
2018-11-13T04:01:50.804Z,45.13
2018-11-13T04:02:50.730Z,44.74
2018-11-13T04:03:50.651Z,44.65
2018-11-13T04:04:50.577Z,45.13
2018-11-13T04:05:50.499Z,49.42
2018-11-13T04:06:50.426Z,48.18
2018-11-13T04:07:50.349Z,48.08
2018-11-13T04:08:50.271Z,50.85
2018-11-13T04:09:50.198Z,50.67
2018-11-13T04:10:50.120Z,49.13
2018-11-13T04:11:50.042Z,48.37
2018-11-13T04:12:49.964Z,47.52
2018-11-13T04:13:49.892Z,47.52
2018-11-13T04:14:49.816Z,44.84
2018-11-13T04:15:49.736Z,44.27
2018-11-13T04:16:49.664Z,45.13
2018-11-13T04:17:49.588Z,44.37
2018-11-13T04:18:49.510Z,43.98
2018-11-13T04:19:49.437Z,44.17
2018-11-13T04:20:49.357Z,44.84
2018-11-13T04:21:49.281Z,43.22
2018-11-13T04:22:49.216Z,50.38
2018-11-13T04:23:49.127Z,49.33
2018-11-13T04:24:49.055Z,49.13
2018-11-13T04:25:48.978Z,49.23
2018-11-13T04:26:48.902Z,48.28
2018-11-13T04:27:48.829Z,49.23
2018-11-13T04:28:48.752Z,47.13
2018-11-13T04:29:48.673Z,48.75
2018-11-13T04:30:48.664Z,49.62
2018-11-13T04:31:48.521Z,52.00
2018-11-13T04:32:48.449Z,51.62
2018-11-13T04:33:48.371Z,51.62
2018-11-13T04:34:48.294Z,53.62
2018-11-13T04:35:48.219Z,52.86
2018-11-13T04:36:48.144Z,56.10
2018-11-13T04:37:48.066Z,57.43
2018-11-13T04:38:47.988Z,57.34
2018-11-13T04:39:47.916Z,56.58
2018-11-13T04:40:47.837Z,57.06
2018-11-13T04:41:47.760Z,58.20
2018-11-13T04:42:47.691Z,57.92
2018-11-13T04:43:47.612Z,59.16
2018-11-13T04:44:47.532Z,60.49
2018-11-13T04:45:47.468Z,61.19
2018-11-13T04:46:47.380Z,62.52
2018-11-13T04:47:47.308Z,63.07
2018-11-13T04:48:47.231Z,62.91
2018-11-13T04:49:47.157Z,62.24
2018-11-13T04:50:47.077Z,61.66
2018-11-13T04:51:47.168Z,62.52
2018-11-13T04:52:46.939Z,60.14
2018-11-13T04:53:46.849Z,61.54
2018-11-13T04:54:46.801Z,61.10
2018-11-13T04:55:46.697Z,59.19
2018-11-13T04:56:46.618Z,59.47
2018-11-13T04:57:46.544Z,61.63
2018-11-13T04:58:46.469Z,63.64
2018-11-13T04:59:46.395Z,63.96
2018-11-13T05:00:46.315Z,63.73
2018-11-13T05:01:46.240Z,62.49
2018-11-13T05:02:46.179Z,64.34
2018-11-13T05:03:46.091Z,65.01
2018-11-13T05:04:46.013Z,64.53
2018-11-13T05:05:45.937Z,64.81
2018-11-13T05:06:45.865Z,64.02
2018-11-13T05:07:45.785Z,64.05
2018-11-13T05:08:45.708Z,64.05
2018-11-13T05:09:45.633Z,61.76
2018-11-13T05:10:45.555Z,63.26
2018-11-13T05:11:45.480Z,65.48
2018-11-13T05:12:45.408Z,63.57
2018-11-13T05:13:45.330Z,63.73
2018-11-13T05:14:45.253Z,63.86
2018-11-13T05:15:45.183Z,63.07
2018-11-13T05:16:45.102Z,63.92
2018-11-13T05:17:45.074Z,64.02
2018-11-13T05:18:44.948Z,64.43
2018-11-13T05:19:44.873Z,65.55
2018-11-13T05:20:44.797Z,65.67
2018-11-13T05:21:44.723Z,64.81
2018-11-13T05:22:44.640Z,65.36
2018-11-13T05:23:44.576Z,64.21
2018-11-13T05:24:44.512Z,66.06
2018-11-13T05:25:44.458Z,65.01
2018-11-13T05:26:44.341Z,63.86
2018-11-13T05:27:44.276Z,63.73
2018-11-13T05:28:44.188Z,63.39
2018-11-13T05:29:44.112Z,61.57
2018-11-13T05:30:44.039Z,61.00
2018-11-13T05:31:43.959Z,64.34
2018-11-13T05:32:43.884Z,62.91
2018-11-13T05:33:43.809Z,61.66
2018-11-13T05:34:43.735Z,60.68
2018-11-13T05:35:43.656Z,62.02
2018-11-13T05:36:43.581Z,61.66
2018-11-13T05:37:43.509Z,64.15
2018-11-13T05:38:43.432Z,63.07
2018-11-13T05:39:43.353Z,62.02
2018-11-13T05:40:43.276Z,62.52
2018-11-13T05:41:43.251Z,63.83
2018-11-13T05:42:43.134Z,65.83
2018-11-13T05:43:43.047Z,64.50
2018-11-13T05:44:42.981Z,62.49
2018-11-13T05:45:42.900Z,61.54
2018-11-13T05:46:42.824Z,61.66
2018-11-13T05:47:42.745Z,62.02
2018-11-13T05:48:42.667Z,61.47
2018-11-13T05:49:42.593Z,60.61
2018-11-13T05:50:42.523Z,61.57
2018-11-13T05:51:42.443Z,63.83
2018-11-13T05:52:42.366Z,63.92
2018-11-13T05:53:42.292Z,63.73
2018-11-13T05:54:42.214Z,63.92
2018-11-13T05:55:42.138Z,62.05
2018-11-13T05:56:42.062Z,66.06
2018-11-13T05:57:41.992Z,65.10
2018-11-13T05:58:41.913Z,63.26
2018-11-13T05:59:41.898Z,65.01
2018-11-13T06:00:41.768Z,64.62
2018-11-13T06:01:41.684Z,63.96
2018-11-13T06:02:41.607Z,65.58
2018-11-13T06:03:41.531Z,64.62
2018-11-13T06:04:41.456Z,64.15
2018-11-13T06:05:41.380Z,64.34
2018-11-13T06:06:41.305Z,66.25
2018-11-13T06:07:41.231Z,66.44
2018-11-13T06:08:41.174Z,65.67
2018-11-13T06:09:41.075Z,66.25
2018-11-13T06:10:41.004Z,64.81
2018-11-13T06:11:40.928Z,65.58
2018-11-13T06:12:40.848Z,63.76
2018-11-13T06:13:40.779Z,63.86
2018-11-13T06:14:40.696Z,66.25
2018-11-13T06:15:40.621Z,66.44
2018-11-13T06:16:40.547Z,66.92
2018-11-13T06:17:40.470Z,66.35
2018-11-13T06:18:40.393Z,64.62
2018-11-13T06:19:40.317Z,67.77
2018-11-13T06:20:40.244Z,65.67
2018-11-13T06:21:40.168Z,64.62
2018-11-13T06:22:40.091Z,64.15
2018-11-13T06:23:40.014Z,68.35
2018-11-13T06:24:39.936Z,66.72
2018-11-13T06:25:39.860Z,68.54
2018-11-13T06:26:39.784Z,67.77
2018-11-13T06:27:39.707Z,67.97
2018-11-13T06:28:39.635Z,67.87
2018-11-13T06:29:39.591Z,67.77
2018-11-13T06:30:39.482Z,66.53
2018-11-13T06:31:39.406Z,67.87
2018-11-13T06:32:39.336Z,68.92
2018-11-13T06:33:39.255Z,68.54
2018-11-13T06:34:39.180Z,69.68
2018-11-13T06:35:39.103Z,67.97
2018-11-13T06:36:39.027Z,68.06
2018-11-13T06:37:38.951Z,67.77
2018-11-13T06:38:38.886Z,67.01
2018-11-13T06:39:38.801Z,69.68
2018-11-13T06:40:38.741Z,68.16
2018-11-13T06:41:38.647Z,68.44
2018-11-13T06:42:38.574Z,69.59
2018-11-13T06:43:38.500Z,68.44
2018-11-13T06:44:38.423Z,67.68
2018-11-13T06:45:38.368Z,68.63
2018-11-13T06:46:38.271Z,68.06
2018-11-13T06:47:38.193Z,68.16
2018-11-13T06:48:38.117Z,68.44
2018-11-13T06:49:38.056Z,69.68
2018-11-13T06:50:37.974Z,68.06
2018-11-13T06:51:37.888Z,68.35
2018-11-13T06:52:37.816Z,68.44
2018-11-13T06:53:37.740Z,68.73
2018-11-13T06:54:37.661Z,67.68
2018-11-13T06:55:37.584Z,67.01
2018-11-13T06:56:37.511Z,66.82
2018-11-13T06:57:37.435Z,67.58
2018-11-13T06:58:37.357Z,67.97
2018-11-13T06:59:37.282Z,67.77
2018-11-13T07:00:37.207Z,71.59
2018-11-13T07:01:37.131Z,68.16
2018-11-13T07:02:37.056Z,68.44
2018-11-13T07:03:36.978Z,67.87
2018-11-13T07:04:36.905Z,68.44
2018-11-13T07:05:36.832Z,69.78
2018-11-13T07:06:36.754Z,71.02
2018-11-13T07:07:36.677Z,69.02
2018-11-13T07:08:36.600Z,68.73
2018-11-13T07:09:36.525Z,71.31
2018-11-13T07:10:36.485Z,72.26
2018-11-13T07:11:36.372Z,70.73
2018-11-13T07:12:36.296Z,72.17
2018-11-13T07:13:36.225Z,71.31
2018-11-13T07:14:36.146Z,70.92
2018-11-13T07:15:36.069Z,71.41
2018-11-13T07:16:35.996Z,71.88
2018-11-13T07:17:35.917Z,72.07
2018-11-13T07:18:35.882Z,71.59
2018-11-13T07:19:35.767Z,72.26
2018-11-13T07:20:35.688Z,71.59
2018-11-13T07:21:35.614Z,69.87
2018-11-13T07:22:35.538Z,72.45
2018-11-13T07:23:35.458Z,72.26
2018-11-13T07:24:35.387Z,72.36
2018-11-13T07:25:35.463Z,70.73
2018-11-13T07:26:35.234Z,72.26
2018-11-13T07:27:35.192Z,71.69
2018-11-13T07:28:35.082Z,72.36
2018-11-13T07:29:35.006Z,71.69
2018-11-13T07:30:34.932Z,71.98
2018-11-13T07:31:34.854Z,71.78
2018-11-13T07:32:34.777Z,70.92
2018-11-13T07:33:34.759Z,69.08
2018-11-13T07:34:34.626Z,70.73
2018-11-13T07:35:34.550Z,72.26
2018-11-13T07:36:34.474Z,71.98
2018-11-13T07:37:34.398Z,68.92
2018-11-13T07:38:34.328Z,74.32
2018-11-13T07:39:34.246Z,74.99
2018-11-13T07:40:34.174Z,75.79
2018-11-13T07:41:34.094Z,76.27
2018-11-13T07:42:34.018Z,75.89
2018-11-13T07:43:33.941Z,76.27
2018-11-13T07:44:33.871Z,76.27
2018-11-13T07:45:33.793Z,76.84
2018-11-13T07:46:33.769Z,74.17
2018-11-13T07:47:33.789Z,77.51
2018-11-13T07:48:33.562Z,77.70
2018-11-13T07:49:33.486Z,77.61
2018-11-13T07:50:33.408Z,81.62
2018-11-13T07:51:33.334Z,79.80
2018-11-13T07:52:33.258Z,81.71
2018-11-13T07:53:33.183Z,80.76
2018-11-13T07:54:33.107Z,80.76
2018-11-13T07:55:33.030Z,81.62
2018-11-13T07:56:32.958Z,82.09
2018-11-13T07:57:32.881Z,80.76
2018-11-13T07:58:32.822Z,84.00
2018-11-13T07:59:32.724Z,81.71
2018-11-13T08:00:32.653Z,82.14
2018-11-13T08:01:32.583Z,89.01
2018-11-13T08:02:32.501Z,91.59
2018-11-13T08:03:32.453Z,90.73
2018-11-13T08:04:32.349Z,91.50
2018-11-13T08:05:32.279Z,92.83
2018-11-13T08:06:32.246Z,91.21
2018-11-13T08:07:32.118Z,92.55
2018-11-13T08:08:32.045Z,96.89
2018-11-13T08:09:31.970Z,98.71
2018-11-13T08:10:31.897Z,99.95
2018-11-13T08:11:31.816Z,99.99
2018-11-13T08:12:31.742Z,99.99
2018-11-13T08:13:31.786Z,99.99
2018-11-13T08:14:31.601Z,99.99
2018-11-13T08:15:31.550Z,99.99
2018-11-13T08:16:31.489Z,99.99
2018-11-13T08:17:31.365Z,99.99
2018-11-13T08:18:31.349Z,99.99
2018-11-13T08:19:31.215Z,99.99
2018-11-13T08:20:31.137Z,99.99
2018-11-13T08:21:31.098Z,99.99
2018-11-13T08:22:30.987Z,99.99
2018-11-13T08:23:30.913Z,99.99
2018-11-13T08:24:30.840Z,99.99
2018-11-13T08:25:30.783Z,99.99
2018-11-13T08:26:30.688Z,99.99
2018-11-13T08:27:30.611Z,99.99
2018-11-13T08:28:30.585Z,99.99
2018-11-13T08:29:30.493Z,99.99
2018-11-13T08:30:30.387Z,99.99
2018-11-13T08:31:30.344Z,99.99
2018-11-13T08:32:30.240Z,99.99
2018-11-13T08:33:30.164Z,99.99
2018-11-13T08:34:30.089Z,99.99
2018-11-13T08:35:30.053Z,99.99
2018-11-13T08:36:29.944Z,99.99
2018-11-13T08:37:29.865Z,99.99
2018-11-13T08:38:29.791Z,99.99
2018-11-13T08:39:29.721Z,99.99
2018-11-13T08:40:29.639Z,99.99
2018-11-13T08:41:29.567Z,99.99
2018-11-13T08:42:29.495Z,99.99
2018-11-13T08:43:29.419Z,99.99
2018-11-13T08:44:29.344Z,99.99
2018-11-13T08:45:29.268Z,99.99
2018-11-13T08:46:29.196Z,99.99
2018-11-13T08:47:29.119Z,99.99
2018-11-13T08:48:29.051Z,99.99
2018-11-13T08:49:28.972Z,99.99
2018-11-13T08:50:28.977Z,99.99
2018-11-13T08:51:28.841Z,99.99
2018-11-13T08:52:28.750Z,99.99
2018-11-13T08:53:28.674Z,99.99
2018-11-13T08:54:28.601Z,99.99
2018-11-13T08:55:28.541Z,99.99
2018-11-13T08:56:28.453Z,99.99
2018-11-13T08:57:28.378Z,99.99
2018-11-13T08:58:28.445Z,99.99
2018-11-13T08:59:28.267Z,99.99
2018-11-13T09:00:28.160Z,99.99
2018-11-13T09:01:28.083Z,99.99
2018-11-13T09:02:28.008Z,99.99
2018-11-13T09:03:27.932Z,99.99
2018-11-13T09:04:27.865Z,99.99
2018-11-13T09:05:27.784Z,99.99
2018-11-13T09:06:27.712Z,99.99
2018-11-13T09:07:27.638Z,99.99
2018-11-13T09:08:27.562Z,99.99
2018-11-13T09:09:27.489Z,99.99
2018-11-13T09:10:27.414Z,99.99
2018-11-13T09:11:27.341Z,99.99
2018-11-13T09:12:27.362Z,99.99
2018-11-13T09:13:27.193Z,99.99
2018-11-13T09:14:27.121Z,99.99
2018-11-13T09:15:27.043Z,99.99
2018-11-13T09:16:26.972Z,99.99
2018-11-13T09:17:26.896Z,99.99
2018-11-13T09:18:26.851Z,99.99
2018-11-13T09:19:26.855Z,99.99
2018-11-13T09:20:26.675Z,99.99
2018-11-13T09:21:26.605Z,99.99
2018-11-13T09:22:26.526Z,99.99
2018-11-13T09:23:26.461Z,99.99
2018-11-13T09:24:26.380Z,99.99
2018-11-13T09:25:26.305Z,99.99
2018-11-13T09:26:26.229Z,99.99
2018-11-13T09:27:26.156Z,99.99
2018-11-13T09:28:26.083Z,99.99
2018-11-13T09:29:26.011Z,99.99
2018-11-13T09:30:26.138Z,99.99
2018-11-13T09:31:25.980Z,99.99
2018-11-13T09:32:25.783Z,99.99
2018-11-13T09:33:25.713Z,99.99
2018-11-13T09:34:25.636Z,99.99
2018-11-13T09:35:25.562Z,99.99
2018-11-13T09:36:25.488Z,99.99
2018-11-13T09:37:25.449Z,99.99
2018-11-13T09:38:25.336Z,99.99
2018-11-13T09:39:25.328Z,99.99
2018-11-13T09:40:25.192Z,99.99
2018-11-13T09:41:25.116Z,99.99
2018-11-13T09:42:25.043Z,99.99
2018-11-13T09:43:24.966Z,99.99
2018-11-13T09:44:24.894Z,99.99
2018-11-13T09:45:24.820Z,99.99
2018-11-13T09:46:24.755Z,99.99
2018-11-13T09:47:24.684Z,99.99
2018-11-13T09:48:24.594Z,99.99
2018-11-13T09:49:24.535Z,99.99
2018-11-13T09:50:24.453Z,99.99
2018-11-13T09:51:24.374Z,99.99
2018-11-13T09:52:24.305Z,99.99
2018-11-13T09:53:24.254Z,99.99
2018-11-13T09:54:24.152Z,99.99
2018-11-13T09:55:24.074Z,99.99
2018-11-13T09:56:24.053Z,99.99
2018-11-13T09:57:23.925Z,99.99
2018-11-13T09:58:23.854Z,99.99
2018-11-13T09:59:23.780Z,99.99
2018-11-13T10:00:23.758Z,99.99
2018-11-13T10:01:23.774Z,99.99
2018-11-13T10:02:24.105Z,99.99
2018-11-13T10:03:24.289Z,99.99
2018-11-13T10:04:24.049Z,99.99
2018-11-13T10:05:23.492Z,99.99
2018-11-13T10:06:23.268Z,99.99
2018-11-13T10:07:23.188Z,99.99
2018-11-13T10:08:23.116Z,99.99
2018-11-13T10:09:23.038Z,99.99
2018-11-13T10:10:23.011Z,99.99
2018-11-13T10:11:22.895Z,99.99
2018-11-13T10:12:22.815Z,99.99
2018-11-13T10:13:22.744Z,99.99
2018-11-13T10:14:22.670Z,99.99
2018-11-13T10:15:22.597Z,99.99
2018-11-13T10:16:22.522Z,99.99
2018-11-13T10:17:22.615Z,99.99
2018-11-13T10:18:22.486Z,99.99
2018-11-13T10:19:22.300Z,99.99
2018-11-13T10:20:22.227Z,99.99
2018-11-13T10:21:22.180Z,99.99
2018-11-13T10:22:22.074Z,99.99
2018-11-13T10:23:22.003Z,99.99
2018-11-13T10:24:21.930Z,99.99
2018-11-13T10:25:21.856Z,99.99
2018-11-13T10:26:21.846Z,99.99
2018-11-13T10:27:21.708Z,99.99
2018-11-13T10:28:21.634Z,99.99
2018-11-13T10:29:21.561Z,99.99
2018-11-13T10:30:21.487Z,99.99
2018-11-13T10:31:21.416Z,99.99
2018-11-13T10:32:21.339Z,99.99
2018-11-13T10:33:21.265Z,99.99
2018-11-13T10:34:21.192Z,99.99
2018-11-13T10:35:21.115Z,99.99
2018-11-13T10:36:21.042Z,99.99
2018-11-13T10:37:20.971Z,99.99
2018-11-13T10:38:20.897Z,99.99
2018-11-13T10:39:20.822Z,99.99
2018-11-13T10:40:20.801Z,99.99
2018-11-13T10:41:20.744Z,99.99
2018-11-13T10:42:20.601Z,99.99
2018-11-13T10:43:20.528Z,99.99
2018-11-13T10:44:20.454Z,99.99
2018-11-13T10:45:20.382Z,99.99
2018-11-13T10:46:20.308Z,99.99
2018-11-13T10:47:20.233Z,96.51
2018-11-13T10:48:20.157Z,94.31
2018-11-13T10:49:20.088Z,95.84
2018-11-13T10:50:20.067Z,95.98
2018-11-13T10:51:19.940Z,98.38
2018-11-13T10:52:19.864Z,99.91
2018-11-13T10:53:19.793Z,97.13
2018-11-13T10:54:19.716Z,96.47
2018-11-13T10:55:19.642Z,96.42
2018-11-13T10:56:19.587Z,96.80
2018-11-13T10:57:19.498Z,96.22
2018-11-13T10:58:19.433Z,99.58
2018-11-13T10:59:19.349Z,95.75
2018-11-13T11:00:19.284Z,93.79
2018-11-13T11:01:19.203Z,94.65
2018-11-13T11:02:19.186Z,95.51
2018-11-13T11:03:19.054Z,98.95
2018-11-13T11:04:18.983Z,96.66
2018-11-13T11:05:18.910Z,95.51
2018-11-13T11:06:18.835Z,96.75
2018-11-13T11:07:18.755Z,95.31
2018-11-13T11:08:18.717Z,96.66
2018-11-13T11:09:18.614Z,92.16
2018-11-13T11:10:18.540Z,91.73
2018-11-13T11:11:18.480Z,91.16
2018-11-13T11:12:18.385Z,93.26
2018-11-13T11:13:18.504Z,96.51
2018-11-13T11:14:18.242Z,96.13
2018-11-13T11:15:18.168Z,95.27
2018-11-13T11:16:18.096Z,94.98
2018-11-13T11:17:18.018Z,95.65
2018-11-13T11:18:17.947Z,98.24
2018-11-13T11:19:17.955Z,96.51
2018-11-13T11:20:17.794Z,97.71
2018-11-13T11:21:17.720Z,98.71
2018-11-13T11:22:17.646Z,98.57
2018-11-13T11:23:17.576Z,99.99
2018-11-13T11:24:17.621Z,99.99
2018-11-13T11:25:17.614Z,99.99
2018-11-13T11:26:17.394Z,99.99
2018-11-13T11:27:17.276Z,99.99
2018-11-13T11:28:17.243Z,99.99
2018-11-13T11:29:17.126Z,98.09
2018-11-13T11:30:17.051Z,99.99
2018-11-13T11:31:16.975Z,99.99
2018-11-13T11:32:16.905Z,99.99
2018-11-13T11:33:16.826Z,99.99
2018-11-13T11:34:16.753Z,99.99
2018-11-13T11:35:16.679Z,99.99
2018-11-13T11:36:16.601Z,99.99
2018-11-13T11:37:16.531Z,99.99
2018-11-13T11:38:16.454Z,98.09
2018-11-13T11:39:16.483Z,97.66
2018-11-13T11:40:16.304Z,99.48
2018-11-13T11:41:16.226Z,99.99
2018-11-13T11:42:16.159Z,99.19
2018-11-13T11:43:16.078Z,98.04
2018-11-13T11:44:16.027Z,97.08
2018-11-13T11:45:15.934Z,99.99
2018-11-13T11:46:15.859Z,96.42
2018-11-13T11:47:15.783Z,96.51
2018-11-13T11:48:15.706Z,99.72
2018-11-13T11:49:15.632Z,96.94
2018-11-13T11:50:15.574Z,97.23
2018-11-13T11:51:15.482Z,96.42
2018-11-13T11:52:15.407Z,98.24
2018-11-13T11:53:15.337Z,99.15
2018-11-13T11:54:15.257Z,98.90
2018-11-13T11:55:15.181Z,97.66
2018-11-13T11:56:15.110Z,99.10
2018-11-13T11:57:15.034Z,94.36
2018-11-13T11:58:14.960Z,96.84
2018-11-13T11:59:14.883Z,94.07
2018-11-13T12:00:14.811Z,92.73
2018-11-13T12:01:14.734Z,91.97
2018-11-13T12:02:14.725Z,91.97
2018-11-13T12:03:14.587Z,93.40
2018-11-13T12:04:14.510Z,94.55
2018-11-13T12:05:14.437Z,97.90
2018-11-13T12:06:14.361Z,92.16
2018-11-13T12:07:14.286Z,91.68
2018-11-13T12:08:14.210Z,89.29
2018-11-13T12:09:14.138Z,89.19
2018-11-13T12:10:14.069Z,90.91
2018-11-13T12:11:13.988Z,91.01
2018-11-13T12:12:13.941Z,91.97
2018-11-13T12:13:13.845Z,89.38
2018-11-13T12:14:13.768Z,85.75
2018-11-13T12:15:13.693Z,86.46
2018-11-13T12:16:13.617Z,85.79
2018-11-13T12:17:13.543Z,84.74
2018-11-13T12:18:13.469Z,87.80
2018-11-13T12:19:13.455Z,83.49
2018-11-13T12:20:13.327Z,86.94
2018-11-13T12:21:13.262Z,84.16
2018-11-13T12:22:13.174Z,78.99
2018-11-13T12:23:13.095Z,77.75
2018-11-13T12:24:13.021Z,77.17
2018-11-13T12:25:12.951Z,76.21
2018-11-13T12:26:12.880Z,75.26
2018-11-13T12:27:12.800Z,75.01
2018-11-13T12:28:12.724Z,75.07
2018-11-13T12:29:12.651Z,75.39
2018-11-13T12:30:12.580Z,74.82
2018-11-13T12:31:12.502Z,76.54
2018-11-13T12:32:12.429Z,73.86
2018-11-13T12:33:12.358Z,75.20
2018-11-13T12:34:12.282Z,71.75
2018-11-13T12:35:12.230Z,71.50
2018-11-13T12:36:12.132Z,71.50
2018-11-13T12:37:12.063Z,69.39
2018-11-13T12:38:11.982Z,69.01
2018-11-13T12:39:11.910Z,68.87
2018-11-13T12:40:11.837Z,69.17
2018-11-13T12:41:11.766Z,69.10
2018-11-13T12:42:11.693Z,69.64
2018-11-13T12:43:11.614Z,69.74
2018-11-13T12:44:11.545Z,68.30
2018-11-13T12:45:11.467Z,68.68
2018-11-13T12:46:11.395Z,68.40
2018-11-13T12:47:11.324Z,69.54
2018-11-13T12:48:11.247Z,69.45
2018-11-13T12:49:11.209Z,69.10
2018-11-13T12:50:11.100Z,69.35
2018-11-13T12:51:11.019Z,70.25
2018-11-13T12:52:10.952Z,69.29
2018-11-13T12:53:10.878Z,69.39
2018-11-13T12:54:10.805Z,69.96
2018-11-13T12:55:10.740Z,71.17
2018-11-13T12:56:10.667Z,72.61
2018-11-13T12:57:10.584Z,72.80